Time;durP1;ratioP1;P1;durP2;ratioP2;P2;SDS_P1;SDS_P2;PMS_P1;PMS_P2;Temp;Humidity;BMP_temperature;BMP_pressure;BME280_temperature;BME280_humidity;BME280_pressure;Samples;Min_cycle;Max_cycle;Signal;HPM_P1;HPM_P2
2022/11/17 00:00:32;;;;;;;1.83;1.02;;;11.20;99.90;;;;;;4984233;28;20031;-74
2022/11/17 00:02:57;;;;;;;0.43;0.40;;;11.20;99.90;;;;;;4983434;28;20035;-73
2022/11/17 00:05:23;;;;;;;1.73;1.17;;;11.20;99.90;;;;;;4991082;28;20039;-73
2022/11/17 00:07:49;;;;;;;1.85;0.95;;;11.20;99.90;;;;;;4983156;28;20110;-74
2022/11/17 00:10:16;;;;;;;3.42;1.08;;;11.20;99.90;;;;;;4988701;28;20482;-72
2022/11/17 00:15:27;;;;;;;4.53;1.10;;;11.20;99.90;;;;;;4999929;28;20497;-74
2022/11/17 00:23:45;;;;;;;1.35;0.73;;;11.10;99.90;;;;;;4981052;28;20049;-74
2022/11/17 00:26:17;;;;;;;1.05;0.77;;;11.10;99.90;;;;;;4973544;28;20030;-74
2022/11/17 00:28:42;;;;;;;5.43;1.20;;;11.10;99.90;;;;;;4999801;28;20077;-73
2022/11/17 00:34:05;;;;;;;1.70;0.80;;;11.10;99.90;;;;;;4997562;28;20517;-75
2022/11/17 00:36:38;;;;;;;3.10;0.80;;;11.00;99.90;;;;;;4983268;28;20034;-73
2022/11/17 00:39:06;;;;;;;1.45;0.80;;;11.10;99.90;;;;;;4984540;28;20069;-73
2022/11/17 00:41:32;;;;;;;0.93;0.73;;;11.00;99.90;;;;;;4996903;28;20037;-74
2022/11/17 00:43:58;;;;;;;0.98;0.60;;;11.00;99.90;;;;;;4984677;28;20034;-72
2022/11/17 00:46:23;;;;;;;3.38;1.33;;;11.00;99.90;;;;;;4983004;28;20621;-73
2022/11/17 00:48:49;;;;;;;2.17;0.63;;;11.10;99.90;;;;;;4984392;28;20076;-73
2022/11/17 00:51:15;;;;;;;0.88;0.60;;;11.00;99.90;;;;;;4983059;28;20045;-73
2022/11/17 00:53:40;;;;;;;10.48;1.55;;;11.00;99.90;;;;;;4984412;28;20605;-74
2022/11/17 00:56:06;;;;;;;1.92;0.90;;;11.00;99.90;;;;;;4982849;28;20145;-73
2022/11/17 00:58:34;;;;;;;1.65;1.13;;;11.00;99.90;;;;;;4982955;28;20403;-73
2022/11/17 01:01:00;;;;;;;3.17;1.00;;;11.00;99.90;;;;;;4971126;28;20030;-75
2022/11/17 01:03:25;;;;;;;1.23;0.90;;;11.00;99.90;;;;;;4984523;28;20033;-73
2022/11/17 01:05:51;;;;;;;1.67;0.70;;;11.00;99.90;;;;;;4997032;28;20471;-73
2022/11/17 01:08:17;;;;;;;1.27;0.95;;;11.00;99.90;;;;;;4998970;28;20026;-73
2022/11/17 01:10:42;;;;;;;2.42;1.13;;;11.00;99.90;;;;;;4982932;28;20039;-73
2022/11/17 01:13:08;;;;;;;3.20;1.27;;;10.90;99.90;;;;;;4984324;28;20022;-73
2022/11/17 01:15:34;;;;;;;2.78;1.15;;;11.00;99.90;;;;;;4984323;28;20451;-73
2022/11/17 01:17:59;;;;;;;9.57;2.53;;;11.00;99.90;;;;;;4982660;28;20034;-73
2022/11/17 01:20:25;;;;;;;6.05;0.85;;;11.00;99.90;;;;;;4986333;28;20031;-73
2022/11/17 01:22:54;;;;;;;5.35;1.30;;;11.00;99.90;;;;;;4979160;28;20027;-73
2022/11/17 01:25:19;;;;;;;1.98;0.70;;;11.10;99.90;;;;;;4989273;28;20033;-74
2022/11/17 01:27:47;;;;;;;0.93;0.63;;;11.10;99.90;;;;;;4980133;28;20114;-73
2022/11/17 01:30:13;;;;;;;5.65;2.22;;;11.10;99.90;;;;;;5004114;28;20030;-73
2022/11/17 01:32:39;;;;;;;4.75;1.17;;;11.00;99.90;;;;;;4975213;28;20046;-74
2022/11/17 01:35:06;;;;;;;1.80;1.20;;;11.00;99.90;;;;;;4995751;28;20023;-73
2022/11/17 01:37:31;;;;;;;2.60;0.93;;;11.00;99.90;;;;;;4982360;28;20039;-74
2022/11/17 01:39:57;;;;;;;3.35;1.20;;;11.00;99.90;;;;;;4981546;28;20041;-74
2022/11/17 01:42:26;;;;;;;1.60;1.00;;;11.00;99.90;;;;;;4985476;28;20043;-74
2022/11/17 01:45:19;;;;;;;2.08;1.00;;;10.90;99.90;;;;;;4995152;28;20510;-74
2022/11/17 01:47:59;;;;;;;2.35;1.25;;;10.90;99.90;;;;;;4961866;28;20102;-74
2022/11/17 01:50:37;;;;;;;1.30;0.65;;;10.90;99.90;;;;;;4972173;28;20037;-74
2022/11/17 01:53:09;;;;;;;3.95;0.98;;;10.90;99.90;;;;;;4981350;28;20030;-74
2022/11/17 01:55:51;;;;;;;1.23;0.80;;;10.90;99.90;;;;;;4984715;28;20499;-74
2022/11/17 01:58:30;;;;;;;2.88;0.70;;;10.90;99.90;;;;;;4986527;28;20105;-74
2022/11/17 02:00:55;;;;;;;5.57;1.30;;;11.00;99.90;;;;;;4970426;28;20499;-74
2022/11/17 02:03:23;;;;;;;1.60;0.80;;;10.90;99.90;;;;;;4998421;28;20113;-74
2022/11/17 02:06:34;;;;;;;1.45;1.00;;;10.90;99.90;;;;;;4985298;28;20034;-74
2022/11/17 02:09:01;;;;;;;4.35;0.57;;;11.00;99.90;;;;;;4980591;28;20034;-74
2022/11/17 02:11:34;;;;;;;1.73;0.82;;;11.00;99.90;;;;;;5000903;28;20044;-73
2022/11/17 02:14:02;;;;;;;0.32;0.32;;;11.10;99.90;;;;;;4998260;28;20042;-74
2022/11/17 02:16:28;;;;;;;0.65;0.38;;;11.20;99.90;;;;;;4992262;28;20065;-74
2022/11/17 02:18:54;;;;;;;1.23;0.75;;;11.30;99.90;;;;;;4982957;28;20058;-74
2022/11/17 02:21:37;;;;;;;0.75;0.50;;;11.40;99.90;;;;;;4983125;28;20490;-74
2022/11/17 02:24:36;;;;;;;1.42;0.50;;;11.40;99.90;;;;;;4975145;28;20037;-74
2022/11/17 02:27:55;;;;;;;0.70;0.50;;;11.50;99.90;;;;;;4975648;28;20031;-73
2022/11/17 02:30:22;;;;;;;0.98;0.63;;;11.60;99.90;;;;;;4978662;28;20058;-74
2022/11/17 02:33:17;;;;;;;1.63;0.80;;;11.70;99.90;;;;;;4977240;28;20031;-73
2022/11/17 02:36:01;;;;;;;0.90;0.60;;;11.70;99.90;;;;;;4983001;28;20036;-73
2022/11/17 02:38:59;;;;;;;3.65;0.52;;;11.70;99.90;;;;;;5010495;23;20414;-69
2022/11/17 02:41:34;;;;;;;0.77;0.55;;;11.80;99.90;;;;;;4992294;28;20042;-68
2022/11/17 02:44:19;;;;;;;3.10;1.27;;;11.80;99.90;;;;;;4998228;28;20038;-69
2022/11/17 02:46:56;;;;;;;5.75;0.77;;;11.80;99.90;;;;;;5022364;28;20033;-68
2022/11/17 02:49:36;;;;;;;2.08;0.63;;;11.80;99.90;;;;;;4993772;28;20035;-69
2022/11/17 02:52:03;;;;;;;1.38;0.50;;;11.80;99.90;;;;;;4973240;28;20535;-68
2022/11/17 02:54:31;;;;;;;4.68;0.65;;;11.90;99.90;;;;;;4979709;28;20018;-68
2022/11/17 02:56:56;;;;;;;2.67;1.70;;;11.90;99.90;;;;;;5004036;28;20034;-68
2022/11/17 02:59:36;;;;;;;1.05;0.50;;;11.90;99.90;;;;;;4979364;28;20038;-68
2022/11/17 03:02:58;;;;;;;0.55;0.40;;;11.80;99.90;;;;;;4978944;28;20093;-68
2022/11/17 03:05:57;;;;;;;6.93;1.33;;;11.70;99.90;;;;;;4956199;29;20031;-68
2022/11/17 03:09:08;;;;;;;1.30;0.47;;;11.70;99.90;;;;;;4983057;28;20042;-68
2022/11/17 03:12:17;;;;;;;0.65;0.47;;;11.70;99.90;;;;;;4988260;28;20085;-69
2022/11/17 03:15:11;;;;;;;1.10;0.45;;;11.60;99.90;;;;;;4993182;28;20113;-69
2022/11/17 03:18:04;;;;;;;1.08;0.60;;;11.60;99.90;;;;;;4980777;28;20072;-68
2022/11/17 03:20:55;;;;;;;5.25;0.80;;;11.60;99.90;;;;;;4955771;28;20510;-69
2022/11/17 03:23:30;;;;;;;6.32;1.30;;;11.70;99.90;;;;;;4983066;28;20077;-68
2022/11/17 03:25:59;;;;;;;1.13;0.47;;;11.80;99.90;;;;;;4990827;28;20490;-69
2022/11/17 03:28:29;;;;;;;1.42;0.50;;;11.70;99.90;;;;;;5000385;28;20026;-68
2022/11/17 03:30:56;;;;;;;4.93;1.33;;;11.70;99.90;;;;;;5007713;28;20138;-68
2022/11/17 03:33:23;;;;;;;2.08;0.70;;;11.70;99.90;;;;;;4985214;28;20034;-68
2022/11/17 03:36:10;;;;;;;0.47;0.47;;;11.70;99.90;;;;;;5007844;28;20028;-68
2022/11/17 03:38:43;;;;;;;1.38;0.80;;;11.60;99.90;;;;;;5000111;28;20065;-68
2022/11/17 03:41:13;;;;;;;3.53;1.23;;;11.60;99.90;;;;;;5006953;28;20030;-68
2022/11/17 03:43:41;;;;;;;8.13;1.10;;;11.50;99.90;;;;;;4993116;28;20565;-68
2022/11/17 03:46:14;;;;;;;2.35;1.55;;;11.40;99.90;;;;;;4992172;28;20089;-68
2022/11/17 03:49:12;;;;;;;3.00;1.10;;;11.30;99.90;;;;;;4985800;28;20030;-68
2022/11/17 03:51:38;;;;;;;1.60;0.73;;;11.20;99.90;;;;;;5005276;28;20509;-68
2022/11/17 03:54:05;;;;;;;1.15;0.85;;;11.10;99.90;;;;;;4985432;28;20034;-68
2022/11/17 03:56:54;;;;;;;1.80;1.08;;;11.10;99.90;;;;;;5006714;28;20061;-68
2022/11/17 03:59:44;;;;;;;1.17;0.75;;;11.10;99.90;;;;;;5002758;28;20018;-68
2022/11/17 04:02:16;;;;;;;2.55;1.13;;;11.10;99.90;;;;;;4985565;28;20426;-69
2022/11/17 04:07:27;;;;;;;1.02;0.70;;;11.00;99.90;;;;;;4999917;28;20038;-69
2022/11/17 04:09:52;;;;;;;0.68;0.43;;;11.00;99.90;;;;;;4975546;28;20118;-69
2022/11/17 04:17:47;;;;;;;0.85;0.68;;;10.90;99.90;;;;;;4994276;28;20061;-69
2022/11/17 04:20:13;;;;;;;0.57;0.55;;;10.80;99.90;;;;;;4998317;28;20478;-69
2022/11/17 04:22:39;;;;;;;0.50;0.43;;;10.80;99.90;;;;;;4996079;28;20498;-69
2022/11/17 04:25:05;;;;;;;0.77;0.68;;;10.80;99.90;;;;;;4954717;29;20051;-69
2022/11/17 04:30:15;;;;;;;0.70;0.52;;;10.80;99.90;;;;;;5005951;28;20042;-68
2022/11/17 04:32:40;;;;;;;2.90;1.13;;;10.80;99.90;;;;;;4997807;28;20045;-69
2022/11/17 04:35:07;;;;;;;4.38;1.30;;;10.70;99.90;;;;;;4993102;28;20137;-69
2022/11/17 04:37:32;;;;;;;1.70;0.95;;;10.70;99.90;;;;;;5001172;28;20057;-69
2022/11/17 04:39:58;;;;;;;1.10;0.57;;;10.60;99.90;;;;;;4989032;28;20482;-69
2022/11/17 04:42:24;;;;;;;8.68;0.70;;;10.60;99.90;;;;;;4980959;28;20085;-69
2022/11/17 04:44:49;;;;;;;3.65;0.98;;;10.60;99.90;;;;;;4990848;28;20031;-69
2022/11/17 04:47:15;;;;;;;0.88;0.55;;;10.50;99.90;;;;;;4986403;28;20077;-69
2022/11/17 04:49:41;;;;;;;2.25;0.75;;;10.50;99.90;;;;;;4989120;28;20044;-69
2022/11/17 04:52:06;;;;;;;0.85;0.75;;;10.40;99.90;;;;;;4987528;28;20161;-69
2022/11/17 04:54:32;;;;;;;5.00;0.57;;;10.40;99.90;;;;;;4988172;28;20031;-69
2022/11/17 04:56:58;;;;;;;2.13;1.40;;;10.40;99.90;;;;;;5003058;28;20042;-69
2022/11/17 04:59:24;;;;;;;1.20;0.82;;;10.30;99.90;;;;;;4986506;28;20037;-69
2022/11/17 05:01:49;;;;;;;1.15;0.75;;;10.30;99.90;;;;;;4989977;28;20033;-69
2022/11/17 05:07:04;;;;;;;1.40;0.68;;;10.20;99.90;;;;;;5000200;28;20034;-69
2022/11/17 05:09:29;;;;;;;2.22;0.77;;;10.30;99.90;;;;;;5002001;28;20030;-69
2022/11/17 05:14:40;;;;;;;0.40;0.40;;;10.30;99.90;;;;;;4985386;28;20039;-69
2022/11/17 05:17:08;;;;;;;1.25;0.73;;;10.30;99.90;;;;;;4980420;28;20034;-70
2022/11/17 05:19:46;;;;;;;2.45;1.00;;;10.30;99.90;;;;;;4985910;28;20026;-69
2022/11/17 05:25:03;;;;;;;1.30;0.85;;;10.30;99.90;;;;;;4991547;28;20040;-69
2022/11/17 05:27:29;;;;;;;3.40;1.13;;;10.40;99.90;;;;;;4983647;28;20054;-69
2022/11/17 05:29:55;;;;;;;0.98;0.80;;;10.40;99.90;;;;;;5005132;28;20038;-69
2022/11/17 05:32:20;;;;;;;4.90;0.93;;;10.30;99.90;;;;;;4984755;28;20077;-69
2022/11/17 05:34:46;;;;;;;1.20;0.85;;;10.30;99.90;;;;;;4989183;28;20034;-69
2022/11/17 05:37:12;;;;;;;2.15;1.23;;;10.40;99.90;;;;;;4985751;28;20039;-69
2022/11/17 05:39:38;;;;;;;4.50;1.17;;;10.40;99.90;;;;;;4987724;28;20030;-69
2022/11/17 05:42:04;;;;;;;2.25;0.90;;;10.40;99.90;;;;;;4987113;28;20030;-69
2022/11/17 05:44:29;;;;;;;0.60;0.43;;;10.40;99.90;;;;;;4985874;28;20022;-69
2022/11/17 05:46:55;;;;;;;5.72;1.25;;;10.40;99.90;;;;;;4987982;28;20039;-69
2022/11/17 05:49:21;;;;;;;1.85;0.80;;;10.40;99.90;;;;;;4985585;28;20030;-69
2022/11/17 05:51:46;;;;;;;0.28;0.25;;;10.40;99.90;;;;;;4988968;28;20041;-69
2022/11/17 05:54:12;;;;;;;0.40;0.40;;;10.40;99.90;;;;;;4984567;28;20053;-69
2022/11/17 05:56:43;;;;;;;0.57;0.57;;;10.50;99.90;;;;;;4989675;28;20034;-69
2022/11/17 05:59:08;;;;;;;1.88;0.70;;;10.50;99.90;;;;;;4990913;28;20034;-69
2022/11/17 06:01:39;;;;;;;0.98;0.57;;;10.60;99.90;;;;;;4989715;28;20049;-69
2022/11/17 06:04:07;;;;;;;2.10;1.02;;;10.60;99.90;;;;;;4975338;28;20034;-69
2022/11/17 06:06:36;;;;;;;1.23;0.88;;;10.70;99.90;;;;;;5004428;28;20751;-69
2022/11/17 06:09:03;;;;;;;0.50;0.50;;;10.70;99.90;;;;;;4997530;28;20042;-70
2022/11/17 06:11:29;;;;;;;0.70;0.43;;;10.80;99.90;;;;;;5001652;28;20518;-69
2022/11/17 06:13:54;;;;;;;2.40;0.60;;;10.80;99.90;;;;;;4983110;28;20069;-70
2022/11/17 06:16:25;;;;;;;4.20;1.05;;;10.90;99.90;;;;;;4993578;28;20088;-69
2022/11/17 06:19:03;;;;;;;1.03;0.73;;;10.90;99.90;;;;;;4981543;28;20031;-69
2022/11/17 06:21:29;;;;;;;1.10;0.88;;;10.90;99.90;;;;;;4989323;28;20034;-69
2022/11/17 06:23:55;;;;;;;1.08;0.60;;;10.90;99.90;;;;;;4981783;28;20488;-69
2022/11/17 06:26:21;;;;;;;1.05;0.47;;;10.90;99.90;;;;;;4989578;28;20038;-69
2022/11/17 06:28:49;;;;;;;0.73;0.52;;;10.90;99.90;;;;;;4968638;28;20026;-69
2022/11/17 06:31:15;;;;;;;1.88;0.50;;;10.90;99.90;;;;;;4975742;28;20509;-69
2022/11/17 06:33:42;;;;;;;2.63;0.75;;;11.00;99.90;;;;;;4990475;28;20266;-69
2022/11/17 06:36:08;;;;;;;0.50;0.50;;;10.90;99.90;;;;;;4995767;28;20033;-69
2022/11/17 06:38:35;;;;;;;1.60;0.43;;;10.90;99.90;;;;;;4963209;28;20028;-70
2022/11/17 06:41:02;;;;;;;1.60;0.63;;;10.90;99.90;;;;;;4928994;28;20514;-69
2022/11/17 06:43:29;;;;;;;0.98;0.70;;;10.90;99.90;;;;;;4962719;28;20609;-70
2022/11/17 06:45:55;;;;;;;0.90;0.80;;;10.90;99.90;;;;;;4956319;28;20451;-69
2022/11/17 06:48:26;;;;;;;5.38;1.55;;;10.80;99.90;;;;;;4967043;28;20170;-70
2022/11/17 06:50:53;;;;;;;2.97;0.65;;;10.80;99.90;;;;;;4966456;28;20343;-69
2022/11/17 06:53:25;;;;;;;0.60;0.57;;;10.80;99.90;;;;;;4967339;28;20039;-69
2022/11/17 06:56:25;;;;;;;8.48;0.73;;;10.80;99.90;;;;;;4970153;28;20112;-69
2022/11/17 06:58:44;;;;;;;5.00;0.60;;;10.80;99.90;;;;;;4959551;28;20059;-68
2022/11/17 07:01:14;;;;;;;2.03;1.10;;;10.80;99.90;;;;;;4958879;28;20406;-67
2022/11/17 07:03:41;;;;;;;1.52;0.70;;;10.80;99.90;;;;;;4962718;28;20034;-68
2022/11/17 07:06:10;;;;;;;2.85;0.65;;;10.80;99.90;;;;;;4959086;28;20039;-67
2022/11/17 07:08:37;;;;;;;3.78;0.52;;;10.80;99.90;;;;;;4965432;28;20490;-67
2022/11/17 07:11:07;;;;;;;1.83;0.80;;;10.80;99.90;;;;;;4968504;28;20058;-69
2022/11/17 07:13:34;;;;;;;1.67;0.70;;;10.80;99.90;;;;;;4965355;28;20113;-68
2022/11/17 07:16:18;;;;;;;0.77;0.75;;;10.90;99.90;;;;;;4969692;28;21505;-68
2022/11/17 07:18:44;;;;;;;0.43;0.32;;;10.90;99.90;;;;;;4965381;28;20090;-69
2022/11/17 07:21:13;;;;;;;0.60;0.60;;;11.00;99.90;;;;;;4968078;28;20398;-69
2022/11/17 07:23:41;;;;;;;0.50;0.50;;;11.00;99.90;;;;;;4965667;28;20049;-69
2022/11/17 07:26:07;;;;;;;1.15;0.75;;;11.10;99.90;;;;;;4968330;28;20030;-69
2022/11/17 07:28:34;;;;;;;3.85;1.25;;;11.10;99.90;;;;;;4960140;28;20034;-69
2022/11/17 07:31:06;;;;;;;0.57;0.40;;;11.10;99.90;;;;;;4972504;28;20075;-69
2022/11/17 07:33:32;;;;;;;0.47;0.40;;;11.20;99.90;;;;;;4922707;28;20051;-69
2022/11/17 07:36:10;;;;;;;0.63;0.52;;;11.20;99.90;;;;;;4958615;28;20031;-69
2022/11/17 07:38:38;;;;;;;1.98;0.40;;;11.20;99.90;;;;;;4958434;28;20078;-69
2022/11/17 07:41:05;;;;;;;2.88;1.10;;;11.30;99.90;;;;;;4983258;28;20027;-69
2022/11/17 07:43:34;;;;;;;0.85;0.57;;;11.30;99.90;;;;;;4966368;28;20053;-68
2022/11/17 07:46:11;;;;;;;1.10;0.40;;;11.30;99.90;;;;;;4983310;28;20038;-68
2022/11/17 07:48:38;;;;;;;0.35;0.30;;;11.30;99.90;;;;;;4980239;28;20077;-68
2022/11/17 07:51:05;;;;;;;0.40;0.40;;;11.40;99.90;;;;;;4968982;28;20097;-69
2022/11/17 07:53:33;;;;;;;1.38;0.32;;;11.40;99.90;;;;;;4966412;28;20034;-69
2022/11/17 07:56:08;;;;;;;1.42;0.50;;;11.50;99.90;;;;;;4983022;28;20046;-70
2022/11/17 07:58:35;;;;;;;1.73;0.70;;;11.50;99.90;;;;;;4975049;28;20069;-69
2022/11/17 08:01:14;;;;;;;1.30;0.68;;;11.60;99.90;;;;;;4957246;28;20529;-70
2022/11/17 08:03:41;;;;;;;2.03;0.90;;;11.50;99.90;;;;;;4980541;28;20034;-70
2022/11/17 08:06:10;;;;;;;1.27;0.65;;;11.60;99.90;;;;;;4983659;28;20090;-69
2022/11/17 08:08:37;;;;;;;1.23;0.63;;;11.60;99.90;;;;;;4956579;28;20102;-68
2022/11/17 08:11:11;;;;;;;3.35;0.82;;;11.60;99.90;;;;;;4955415;28;20031;-68
2022/11/17 08:13:38;;;;;;;0.63;0.40;;;11.60;99.90;;;;;;4980689;28;20030;-68
2022/11/17 08:16:06;;;;;;;0.50;0.50;;;11.60;99.90;;;;;;4973509;28;20038;-68
2022/11/17 08:18:32;;;;;;;6.18;0.68;;;11.70;99.90;;;;;;4961138;28;20062;-68
2022/11/17 08:21:06;;;;;;;2.05;1.23;;;11.70;99.90;;;;;;4962263;28;20027;-68
2022/11/17 08:23:32;;;;;;;9.93;1.05;;;11.70;99.90;;;;;;4981379;28;20078;-68
2022/11/17 08:26:00;;;;;;;1.27;0.40;;;11.70;99.90;;;;;;4964416;28;20533;-68
2022/11/17 08:28:26;;;;;;;2.53;0.93;;;11.70;99.90;;;;;;4963973;28;20039;-69
2022/11/17 08:30:51;;;;;;;1.60;0.50;;;11.70;99.90;;;;;;4962301;28;20034;-68
2022/11/17 08:33:17;;;;;;;6.55;1.15;;;11.70;99.90;;;;;;4958704;28;20034;-68
2022/11/17 08:35:43;;;;;;;1.15;0.40;;;11.70;99.90;;;;;;4951596;28;20027;-68
2022/11/17 08:38:10;;;;;;;2.25;0.90;;;11.60;99.90;;;;;;4980353;23;20049;-76
2022/11/17 08:40:37;;;;;;;0.55;0.40;;;11.60;99.90;;;;;;4985516;28;20046;-76
2022/11/17 08:43:03;;;;;;;5.07;1.13;;;11.50;99.90;;;;;;4988025;28;20030;-77
2022/11/17 08:45:30;;;;;;;6.57;1.38;;;11.50;99.90;;;;;;4990376;28;20056;-76
2022/11/17 08:47:56;;;;;;;2.70;0.80;;;11.50;99.90;;;;;;4993820;28;20643;-71
2022/11/17 08:50:22;;;;;;;0.77;0.50;;;11.60;99.90;;;;;;5017370;28;20042;-75
2022/11/17 08:52:47;;;;;;;0.70;0.47;;;11.60;99.90;;;;;;5026047;28;20156;-74
2022/11/17 08:55:14;;;;;;;5.30;0.90;;;11.70;99.90;;;;;;5024040;28;20029;-73
2022/11/17 08:57:39;;;;;;;2.05;0.73;;;11.80;99.90;;;;;;5027661;28;20041;-71
2022/11/17 09:00:06;;;;;;;2.28;0.82;;;11.80;99.90;;;;;;5022306;28;20022;-72
2022/11/17 09:02:32;;;;;;;1.00;0.50;;;12.00;99.90;;;;;;5011100;28;20048;-76
2022/11/17 09:04:58;;;;;;;1.15;0.60;;;12.00;99.90;;;;;;5021746;28;20022;-73
2022/11/17 09:07:23;;;;;;;1.05;0.95;;;12.10;99.90;;;;;;5020801;28;20037;-75
2022/11/17 09:09:49;;;;;;;2.63;0.98;;;12.10;99.90;;;;;;5011741;28;20049;-71
2022/11/17 09:12:16;;;;;;;1.92;0.65;;;12.10;99.90;;;;;;5013519;28;20030;-73
2022/11/17 09:14:42;;;;;;;0.60;0.30;;;12.10;99.90;;;;;;5023319;28;20029;-72
2022/11/17 09:17:08;;;;;;;0.65;0.43;;;12.10;99.90;;;;;;5015260;28;20040;-72
2022/11/17 09:19:34;;;;;;;1.05;0.50;;;12.10;99.90;;;;;;5014188;28;20839;-73
2022/11/17 09:22:00;;;;;;;8.43;1.17;;;12.10;99.90;;;;;;5019813;28;20029;-72
2022/11/17 09:24:26;;;;;;;0.30;0.20;;;12.20;99.90;;;;;;5011295;28;20128;-71
2022/11/17 09:26:56;;;;;;;4.25;1.00;;;12.40;99.90;;;;;;5007688;28;20088;-73
2022/11/17 09:29:22;;;;;;;3.92;0.40;;;12.50;99.90;;;;;;5005507;28;20034;-71
2022/11/17 09:31:48;;;;;;;2.67;0.60;;;12.50;99.90;;;;;;5010001;28;20088;-74
2022/11/17 09:34:15;;;;;;;2.38;0.88;;;12.60;99.90;;;;;;5021445;28;20037;-73
2022/11/17 09:36:41;;;;;;;2.33;0.43;;;12.60;99.90;;;;;;4999463;28;20030;-71
2022/11/17 09:39:07;;;;;;;7.13;1.27;;;12.50;99.90;;;;;;5011072;28;20088;-71
2022/11/17 09:41:43;;;;;;;1.67;0.40;;;12.50;99.90;;;;;;4982946;28;20048;-70
2022/11/17 09:44:24;;;;;;;1.42;0.77;;;12.40;99.90;;;;;;5003363;28;20375;-71
2022/11/17 09:47:15;;;;;;;4.13;1.55;;;12.40;99.90;;;;;;5005746;28;20158;-71
2022/11/17 09:50:01;;;;;;;5.88;0.75;;;12.40;99.90;;;;;;5001150;28;20461;-70
2022/11/17 09:52:56;;;;;;;8.85;0.70;;;12.30;99.90;;;;;;5014120;28;20044;-71
2022/11/17 09:55:58;;;;;;;2.28;1.23;;;12.30;99.90;;;;;;5011659;28;20117;-70
2022/11/17 09:58:55;;;;;;;3.55;0.68;;;12.30;99.90;;;;;;4994240;28;20046;-71
2022/11/17 10:01:22;;;;;;;2.00;0.55;;;12.30;99.90;;;;;;5008416;28;20064;-71
2022/11/17 10:03:52;;;;;;;5.45;0.70;;;12.40;99.90;;;;;;5012704;28;20117;-72
2022/11/17 10:06:20;;;;;;;9.60;1.13;;;12.50;99.90;;;;;;4999415;28;20409;-73
2022/11/17 10:08:54;;;;;;;1.85;0.55;;;12.70;99.90;;;;;;5018274;28;20119;-70
2022/11/17 10:11:32;;;;;;;2.72;0.63;;;12.70;99.90;;;;;;5019800;28;20045;-72
2022/11/17 10:14:06;;;;;;;15.00;0.68;;;12.70;99.90;;;;;;5017152;28;20087;-72
2022/11/17 10:16:34;;;;;;;1.30;0.73;;;12.70;99.90;;;;;;5021363;28;20037;-73
2022/11/17 10:19:15;;;;;;;3.47;0.57;;;12.80;99.90;;;;;;5012480;28;20034;-72
2022/11/17 10:21:41;;;;;;;9.05;0.80;;;12.80;99.90;;;;;;5009044;28;20029;-71
2022/11/17 10:24:07;;;;;;;6.15;1.15;;;12.80;99.90;;;;;;4992306;28;20652;-71
2022/11/17 10:26:48;;;;;;;0.70;0.30;;;12.80;99.90;;;;;;5008808;28;20045;-72
2022/11/17 10:29:22;;;;;;;1.65;0.35;;;12.80;99.90;;;;;;5004321;28;20041;-71
2022/11/17 10:31:48;;;;;;;9.07;1.17;;;12.80;99.90;;;;;;5020894;28;20038;-73
2022/11/17 10:34:35;;;;;;;1.60;0.65;;;13.00;99.90;;;;;;5020981;28;20072;-72
2022/11/17 10:37:16;;;;;;;4.20;0.90;;;12.80;99.90;;;;;;5015439;28;20034;-71
2022/11/17 10:39:42;;;;;;;0.53;0.27;;;12.90;99.90;;;;;;5013928;28;20041;-72
2022/11/17 10:42:28;;;;;;;4.80;0.43;;;12.90;99.90;;;;;;5008848;28;20092;-71
2022/11/17 10:45:00;;;;;;;11.27;1.58;;;12.80;99.90;;;;;;5002241;28;20061;-72
2022/11/17 10:47:46;;;;;;;5.85;1.00;;;12.80;99.90;;;;;;5018341;28;20113;-73
2022/11/17 10:50:21;;;;;;;4.50;0.38;;;12.70;99.90;;;;;;4992288;28;20049;-72
2022/11/17 10:52:50;;;;;;;1.10;0.40;;;12.70;99.90;;;;;;5009240;28;20117;-71
2022/11/17 10:55:30;;;;;;;3.03;0.65;;;12.80;99.90;;;;;;5019210;28;20113;-69
2022/11/17 10:58:21;;;;;;;4.70;0.35;;;13.20;99.90;;;;;;5018295;28;20488;-70
2022/11/17 11:00:57;;;;;;;3.13;0.63;;;13.00;99.90;;;;;;5005524;28;20033;-68
2022/11/17 11:03:34;;;;;;;0.47;0.13;;;13.10;99.90;;;;;;5021820;28;20037;-68
2022/11/17 11:06:21;;;;;;;2.55;0.40;;;13.00;99.90;;;;;;5022146;28;20038;-68
2022/11/17 11:09:14;;;;;;;3.13;0.93;;;13.20;99.90;;;;;;5024902;28;20030;-68
2022/11/17 11:11:47;;;;;;;1.42;0.70;;;13.10;99.90;;;;;;5022813;28;20408;-68
2022/11/17 11:14:35;;;;;;;4.32;0.43;;;13.20;99.90;;;;;;5009199;28;20112;-68
2022/11/17 11:17:12;;;;;;;1.75;0.52;;;13.60;99.90;;;;;;5018076;28;20033;-68
2022/11/17 11:19:41;;;;;;;0.88;0.30;;;14.10;99.90;;;;;;5026715;28;20098;-68
2022/11/17 11:22:44;;;;;;;6.88;0.70;;;14.60;99.90;;;;;;5007786;28;20057;-68
2022/11/17 11:25:39;;;;;;;3.40;0.50;;;14.80;99.90;;;;;;4997444;28;20025;-68
2022/11/17 11:28:13;;;;;;;1.35;0.40;;;14.50;99.90;;;;;;5013658;28;20025;-68
2022/11/17 11:31:43;;;;;;;1.90;1.02;;;14.40;99.90;;;;;;5019631;28;20084;-69
2022/11/17 11:34:17;;;;;;;1.30;0.32;;;13.80;99.90;;;;;;5031823;28;20048;-69
2022/11/17 11:36:55;;;;;;;1.05;0.35;;;13.90;99.90;;;;;;5017893;28;20038;-69
2022/11/17 11:39:55;;;;;;;0.45;0.28;;;13.90;99.90;;;;;;5010911;28;20117;-68
2022/11/17 11:43:01;;;;;;;7.30;1.13;;;13.70;99.90;;;;;;5019070;28;20061;-69
2022/11/17 11:46:25;;;;;;;1.30;0.40;;;13.90;99.90;;;;;;5017989;28;20071;-68
2022/11/17 11:48:56;;;;;;;4.80;0.70;;;14.00;99.90;;;;;;5026711;28;20100;-67
2022/11/17 11:51:34;;;;;;;2.00;0.38;;;14.10;99.90;;;;;;5024298;28;20448;-73
2022/11/17 11:54:05;;;;;;;2.92;0.10;;;14.20;99.90;;;;;;5030280;28;20054;-69
2022/11/17 11:56:37;;;;;;;;;;;13.80;99.90;;;;;;5021655;28;20218;-64
2022/11/17 11:59:30;;;;;;;1.00;0.60;;;13.90;99.90;;;;;;5037222;28;19917;-64
2022/11/17 12:02:13;;;;;;;1.50;0.40;;;13.90;99.90;;;;;;5020188;28;20739;-64
2022/11/17 12:05:09;;;;;;;8.85;1.77;;;13.70;99.90;;;;;;5029596;28;20037;-64
2022/11/17 12:08:10;;;;;;;0.60;0.45;;;13.70;99.90;;;;;;5016010;28;20026;-68
2022/11/17 12:10:47;;;;;;;6.63;0.60;;;13.60;99.90;;;;;;5002775;28;20049;-68
2022/11/17 12:13:16;;;;;;;1.48;0.20;;;13.50;99.90;;;;;;5021548;28;20551;-68
2022/11/17 12:15:41;;;;;;;1.58;0.20;;;13.50;99.90;;;;;;5027810;28;20052;-68
2022/11/17 12:18:30;;;;;;;4.70;0.80;;;13.50;99.90;;;;;;5022108;28;20041;-68
2022/11/17 12:21:11;;;;;;;4.88;1.45;;;13.40;99.90;;;;;;5027088;28;20087;-66
2022/11/17 12:24:21;;;;;;;1.13;0.22;;;13.30;99.90;;;;;;5019318;28;20033;-68
2022/11/17 12:26:47;;;;;;;2.80;0.70;;;13.40;99.90;;;;;;5018522;28;20042;-68
2022/11/17 12:29:19;;;;;;;2.53;0.60;;;13.60;99.90;;;;;;5020675;28;20034;-68
2022/11/17 12:32:03;;;;;;;0.60;0.35;;;13.90;99.90;;;;;;5018996;28;20508;-68
2022/11/17 12:34:35;;;;;;;0.57;0.30;;;14.40;99.90;;;;;;5025393;28;20045;-68
2022/11/17 12:37:20;;;;;;;2.00;0.45;;;14.40;99.90;;;;;;5018854;28;20034;-66
2022/11/17 12:40:06;;;;;;;2.08;0.40;;;14.30;99.90;;;;;;5018919;28;20034;-67
2022/11/17 12:42:34;;;;;;;4.75;0.70;;;14.50;99.90;;;;;;5014376;28;20095;-68
2022/11/17 12:45:06;;;;;;;0.25;0.10;;;14.30;99.90;;;;;;5017796;28;20040;-68
2022/11/17 12:47:45;;;;;;;4.53;0.70;;;14.20;99.90;;;;;;5021320;28;20493;-68
2022/11/17 12:50:19;;;;;;;7.10;1.30;;;14.00;99.90;;;;;;5020069;28;20040;-68
2022/11/17 12:53:13;;;;;;;1.13;0.35;;;14.00;99.90;;;;;;5020344;28;20044;-68
2022/11/17 12:55:44;;;;;;;1.65;0.40;;;14.00;99.90;;;;;;5012146;28;20065;-66
2022/11/17 12:58:42;;;;;;;1.20;0.50;;;14.00;99.90;;;;;;5018677;28;20045;-72
2022/11/17 13:01:39;;;;;;;3.67;0.85;;;14.00;99.90;;;;;;5012828;28;20026;-68
2022/11/17 13:04:16;;;;;;;1.60;0.45;;;13.90;99.90;;;;;;5014974;28;20120;-68
2022/11/17 13:07:04;;;;;;;6.82;0.45;;;13.90;99.90;;;;;;5009323;28;20030;-67
2022/11/17 13:09:33;;;;;;;8.10;1.40;;;13.80;99.90;;;;;;5011867;28;20099;-68
2022/11/17 13:12:05;;;;;;;9.43;0.85;;;13.80;99.90;;;;;;5009145;28;20120;-68
2022/11/17 13:14:50;;;;;;;1.90;0.50;;;13.80;99.90;;;;;;5013961;28;20034;-68
2022/11/17 13:17:20;;;;;;;4.00;0.68;;;13.70;99.90;;;;;;5016909;28;20041;-69
2022/11/17 13:19:46;;;;;;;1.20;0.10;;;13.70;99.90;;;;;;5026226;28;20057;-68
2022/11/17 13:22:14;;;;;;;2.35;0.95;;;13.70;99.90;;;;;;5018762;28;20101;-68
2022/11/17 13:24:43;;;;;;;3.28;0.38;;;13.80;99.90;;;;;;5011048;28;20081;-68
2022/11/17 13:27:29;;;;;;;2.22;0.52;;;13.90;99.90;;;;;;5011360;28;20038;-67
2022/11/17 13:30:26;;;;;;;13.00;0.68;;;13.70;99.90;;;;;;5012059;28;20032;-68
2022/11/17 13:32:53;;;;;;;0.98;0.20;;;13.50;99.90;;;;;;5018328;28;20030;-68
2022/11/17 13:35:23;;;;;;;2.20;0.70;;;13.40;99.90;;;;;;5024737;28;20057;-68
2022/11/17 13:38:10;;;;;;;5.97;1.30;;;13.20;99.90;;;;;;5021477;28;20037;-68
2022/11/17 13:40:39;;;;;;;1.10;0.60;;;13.10;99.90;;;;;;5004504;28;20461;-67
2022/11/17 13:43:10;;;;;;;0.98;0.75;;;12.90;99.90;;;;;;5020057;28;20041;-70
2022/11/17 13:45:36;;;;;;;1.92;0.77;;;12.80;99.90;;;;;;5023580;28;20090;-67
2022/11/17 13:48:02;;;;;;;1.83;0.60;;;12.60;99.90;;;;;;5019196;28;20029;-68
2022/11/17 13:50:37;;;;;;;0.90;0.55;;;12.30;99.90;;;;;;5019822;28;20030;-67